Agate, Nebraska
Current Conditions -  °F | °C
As of 12:53 AM on Thursday 29 Jan 2015 (Local Time) from KTOR Reporting Station
Few Clouds Few Clouds  
Wind Chill: 28°   Ceiling: Unl
Heat Index: 37°   Visibility: 10mi
Dew Point: 26°   Wind: 14mph
Humidity: 65%   Direction: 320°NW
Pressure: 30.36"   Gusts: NA
Location:  42.42°N, 103.79°W
Report Text: KTOR 290753Z AUTO 32012KT 10SM FEW100 03/M03 A3036 RMK AO2 SLP286 T00281033
Loading
Personal Weather Stations






























Interactive Weather Map New forecast layout! Learn more

10-Day Weather Forecast

Advertisements
Track Severe Weather on mobile